sensor_id;sensor_type;location;lat;lon;timestamp;temperature;humidity
32698;DHT22;19087;51.062;3.754;2022-11-20T00:01:26;5.80;99.90
32698;DHT22;19087;51.062;3.754;2022-11-20T00:03:53;5.60;99.90
32698;DHT22;19087;51.062;3.754;2022-11-20T00:06:28;5.60;99.90
32698;DHT22;19087;51.062;3.754;2022-11-20T00:08:55;5.70;99.90
32698;DHT22;19087;51.062;3.754;2022-11-20T00:11:23;5.80;99.90
32698;DHT22;19087;51.062;3.754;2022-11-20T00:13:53;5.80;99.90
32698;DHT22;19087;51.062;3.754;2022-11-20T00:16:23;5.90;99.90
32698;DHT22;19087;51.062;3.754;2022-11-20T00:18:52;5.90;99.90
32698;DHT22;19087;51.062;3.754;2022-11-20T00:21:21;5.90;99.90
32698;DHT22;19087;51.062;3.754;2022-11-20T00:23:50;5.90;99.90
32698;DHT22;19087;51.062;3.754;2022-11-20T00:26:19;6.00;99.90
32698;DHT22;19087;51.062;3.754;2022-11-20T00:28:53;6.10;99.90
32698;DHT22;19087;51.062;3.754;2022-11-20T00:31:20;6.00;99.90
32698;DHT22;19087;51.062;3.754;2022-11-20T00:33:46;5.70;99.90
32698;DHT22;19087;51.062;3.754;2022-11-20T00:36:20;5.80;99.90
32698;DHT22;19087;51.062;3.754;2022-11-20T00:38:53;5.80;99.90
32698;DHT22;19087;51.062;3.754;2022-11-20T00:41:23;5.80;99.90
32698;DHT22;19087;51.062;3.754;2022-11-20T00:43:53;6.00;99.90
32698;DHT22;19087;51.062;3.754;2022-11-20T00:46:25;6.10;99.90
32698;DHT22;19087;51.062;3.754;2022-11-20T00:48:54;6.00;99.90
32698;DHT22;19087;51.062;3.754;2022-11-20T00:51:22;5.80;99.90
32698;DHT22;19087;51.062;3.754;2022-11-20T00:53:50;5.80;99.90
32698;DHT22;19087;51.062;3.754;2022-11-20T00:56:18;5.80;99.90
32698;DHT22;19087;51.062;3.754;2022-11-20T00:58:45;5.80;99.90
32698;DHT22;19087;51.062;3.754;2022-11-20T01:01:16;5.90;99.90
32698;DHT22;19087;51.062;3.754;2022-11-20T01:03:44;5.70;99.90
32698;DHT22;19087;51.062;3.754;2022-11-20T01:06:16;5.70;99.90
32698;DHT22;19087;51.062;3.754;2022-11-20T01:08:44;5.60;99.90
32698;DHT22;19087;51.062;3.754;2022-11-20T01:11:17;5.70;99.90
32698;DHT22;19087;51.062;3.754;2022-11-20T01:13:48;5.60;99.90
32698;DHT22;19087;51.062;3.754;2022-11-20T01:16:23;5.80;99.90
32698;DHT22;19087;51.062;3.754;2022-11-20T01:18:53;5.90;99.90
32698;DHT22;19087;51.062;3.754;2022-11-20T01:21:29;6.10;99.90
32698;DHT22;19087;51.062;3.754;2022-11-20T01:23:55;6.30;99.90
32698;DHT22;19087;51.062;3.754;2022-11-20T01:26:25;6.50;99.90
32698;DHT22;19087;51.062;3.754;2022-11-20T01:28:54;6.60;99.90
32698;DHT22;19087;51.062;3.754;2022-11-20T01:31:20;6.60;99.90
32698;DHT22;19087;51.062;3.754;2022-11-20T01:33:48;6.50;99.90
32698;DHT22;19087;51.062;3.754;2022-11-20T01:36:19;6.30;99.90
32698;DHT22;19087;51.062;3.754;2022-11-20T01:38:52;6.10;99.90
32698;DHT22;19087;51.062;3.754;2022-11-20T01:41:22;6.10;99.90
32698;DHT22;19087;51.062;3.754;2022-11-20T01:44:17;6.00;99.90
32698;DHT22;19087;51.062;3.754;2022-11-20T01:46:59;6.00;99.90
32698;DHT22;19087;51.062;3.754;2022-11-20T01:49:44;6.10;99.90
32698;DHT22;19087;51.062;3.754;2022-11-20T01:52:24;6.10;99.90
32698;DHT22;19087;51.062;3.754;2022-11-20T01:55:13;6.10;99.90
32698;DHT22;19087;51.062;3.754;2022-11-20T01:57:43;6.10;99.90
32698;DHT22;19087;51.062;3.754;2022-11-20T02:00:12;6.00;99.90
32698;DHT22;19087;51.062;3.754;2022-11-20T02:02:40;6.10;99.90
32698;DHT22;19087;51.062;3.754;2022-11-20T02:05:31;6.00;99.90
32698;DHT22;19087;51.062;3.754;2022-11-20T02:07:59;6.10;99.90
32698;DHT22;19087;51.062;3.754;2022-11-20T02:10:28;6.10;99.90
32698;DHT22;19087;51.062;3.754;2022-11-20T02:12:55;6.00;99.90
32698;DHT22;19087;51.062;3.754;2022-11-20T02:15:43;5.80;99.90
32698;DHT22;19087;51.062;3.754;2022-11-20T02:18:10;5.60;99.90
32698;DHT22;19087;51.062;3.754;2022-11-20T02:20:40;5.60;99.90
32698;DHT22;19087;51.062;3.754;2022-11-20T02:25:49;5.50;99.90
32698;DHT22;19087;51.062;3.754;2022-11-20T02:28:18;5.60;99.90
32698;DHT22;19087;51.062;3.754;2022-11-20T02:30:43;5.60;99.90
32698;DHT22;19087;51.062;3.754;2022-11-20T02:33:13;5.50;99.90
32698;DHT22;19087;51.062;3.754;2022-11-20T02:35:45;5.50;99.90
32698;DHT22;19087;51.062;3.754;2022-11-20T02:38:11;5.50;99.90
32698;DHT22;19087;51.062;3.754;2022-11-20T02:40:39;5.50;99.90
32698;DHT22;19087;51.062;3.754;2022-11-20T02:43:07;5.60;99.90
32698;DHT22;19087;51.062;3.754;2022-11-20T02:45:37;5.70;99.90
32698;DHT22;19087;51.062;3.754;2022-11-20T02:48:05;5.80;99.90
32698;DHT22;19087;51.062;3.754;2022-11-20T02:50:32;6.00;99.90
32698;DHT22;19087;51.062;3.754;2022-11-20T02:52:59;5.70;99.90
32698;DHT22;19087;51.062;3.754;2022-11-20T02:55:32;5.70;99.90
32698;DHT22;19087;51.062;3.754;2022-11-20T02:58:00;5.70;99.90
32698;DHT22;19087;51.062;3.754;2022-11-20T03:00:32;5.70;99.90
32698;DHT22;19087;51.062;3.754;2022-11-20T03:02:58;5.60;99.90
32698;DHT22;19087;51.062;3.754;2022-11-20T03:05:23;5.60;99.90
32698;DHT22;19087;51.062;3.754;2022-11-20T03:07:56;5.70;99.90
32698;DHT22;19087;51.062;3.754;2022-11-20T03:10:23;5.90;99.90
32698;DHT22;19087;51.062;3.754;2022-11-20T03:12:56;6.00;99.90
32698;DHT22;19087;51.062;3.754;2022-11-20T03:15:28;6.00;99.90
32698;DHT22;19087;51.062;3.754;2022-11-20T03:17:56;6.00;99.90
32698;DHT22;19087;51.062;3.754;2022-11-20T03:20:26;6.00;99.90
32698;DHT22;19087;51.062;3.754;2022-11-20T03:22:55;6.00;99.90
32698;DHT22;19087;51.062;3.754;2022-11-20T03:25:22;6.10;99.90
32698;DHT22;19087;51.062;3.754;2022-11-20T03:27:50;5.90;99.90
32698;DHT22;19087;51.062;3.754;2022-11-20T03:30:17;5.90;99.90
32698;DHT22;19087;51.062;3.754;2022-11-20T03:32:55;6.00;99.90
32698;DHT22;19087;51.062;3.754;2022-11-20T03:35:24;6.10;99.90
32698;DHT22;19087;51.062;3.754;2022-11-20T03:37:49;6.10;99.90
32698;DHT22;19087;51.062;3.754;2022-11-20T03:40:21;6.10;99.90
32698;DHT22;19087;51.062;3.754;2022-11-20T03:42:50;6.00;99.90
32698;DHT22;19087;51.062;3.754;2022-11-20T03:45:17;5.90;99.90
32698;DHT22;19087;51.062;3.754;2022-11-20T03:47:45;5.80;99.90
32698;DHT22;19087;51.062;3.754;2022-11-20T03:50:13;5.80;99.90
32698;DHT22;19087;51.062;3.754;2022-11-20T03:52:42;5.80;99.90
32698;DHT22;19087;51.062;3.754;2022-11-20T03:55:09;5.80;99.90
32698;DHT22;19087;51.062;3.754;2022-11-20T03:57:38;5.80;99.90
32698;DHT22;19087;51.062;3.754;2022-11-20T04:00:07;5.90;99.90
32698;DHT22;19087;51.062;3.754;2022-11-20T04:02:36;5.90;99.90
32698;DHT22;19087;51.062;3.754;2022-11-20T04:05:04;5.90;99.90
32698;DHT22;19087;51.062;3.754;2022-11-20T04:07:29;5.70;99.90
32698;DHT22;19087;51.062;3.754;2022-11-20T04:09:58;5.80;99.90
32698;DHT22;19087;51.062;3.754;2022-11-20T04:12:27;5.90;99.90
32698;DHT22;19087;51.062;3.754;2022-11-20T04:15:05;5.90;99.90
32698;DHT22;19087;51.062;3.754;2022-11-20T04:17:32;6.00;99.90
32698;DHT22;19087;51.062;3.754;2022-11-20T04:20:01;6.10;99.90
32698;DHT22;19087;51.062;3.754;2022-11-20T04:22:27;5.90;99.90
32698;DHT22;19087;51.062;3.754;2022-11-20T04:24:54;5.90;99.90
32698;DHT22;19087;51.062;3.754;2022-11-20T04:27:21;6.00;99.90
32698;DHT22;19087;51.062;3.754;2022-11-20T04:29:48;6.10;99.90
32698;DHT22;19087;51.062;3.754;2022-11-20T04:32:13;6.10;99.90
32698;DHT22;19087;51.062;3.754;2022-11-20T04:34:39;6.20;99.90
32698;DHT22;19087;51.062;3.754;2022-11-20T04:37:06;6.20;99.90
32698;DHT22;19087;51.062;3.754;2022-11-20T04:39:31;6.20;99.90
32698;DHT22;19087;51.062;3.754;2022-11-20T04:41:57;6.20;99.90
32698;DHT22;19087;51.062;3.754;2022-11-20T04:44:41;6.40;99.90
32698;DHT22;19087;51.062;3.754;2022-11-20T04:47:07;6.10;99.90
32698;DHT22;19087;51.062;3.754;2022-11-20T04:49:33;6.10;99.90
32698;DHT22;19087;51.062;3.754;2022-11-20T04:51:59;5.90;99.90
32698;DHT22;19087;51.062;3.754;2022-11-20T04:54:25;5.80;99.90
32698;DHT22;19087;51.062;3.754;2022-11-20T04:56:51;5.70;99.90
32698;DHT22;19087;51.062;3.754;2022-11-20T04:59:17;5.70;99.90
32698;DHT22;19087;51.062;3.754;2022-11-20T05:01:45;5.70;99.90
32698;DHT22;19087;51.062;3.754;2022-11-20T05:04:14;5.70;99.90
32698;DHT22;19087;51.062;3.754;2022-11-20T05:06:39;5.60;99.90
32698;DHT22;19087;51.062;3.754;2022-11-20T05:09:05;5.60;99.90
32698;DHT22;19087;51.062;3.754;2022-11-20T05:11:31;5.60;99.90
32698;DHT22;19087;51.062;3.754;2022-11-20T05:13:59;5.70;99.90
32698;DHT22;19087;51.062;3.754;2022-11-20T05:16:25;5.60;99.90
32698;DHT22;19087;51.062;3.754;2022-11-20T05:18:53;5.50;99.90
32698;DHT22;19087;51.062;3.754;2022-11-20T05:21:19;5.50;99.90
32698;DHT22;19087;51.062;3.754;2022-11-20T05:23:45;5.40;99.90
32698;DHT22;19087;51.062;3.754;2022-11-20T05:26:22;5.30;99.90
32698;DHT22;19087;51.062;3.754;2022-11-20T05:28:51;5.30;99.90
32698;DHT22;19087;51.062;3.754;2022-11-20T05:31:22;5.30;99.90
32698;DHT22;19087;51.062;3.754;2022-11-20T05:33:49;5.30;99.90
32698;DHT22;19087;51.062;3.754;2022-11-20T05:36:15;5.40;99.90
32698;DHT22;19087;51.062;3.754;2022-11-20T05:38:42;5.50;99.90
32698;DHT22;19087;51.062;3.754;2022-11-20T05:41:17;5.60;99.90
32698;DHT22;19087;51.062;3.754;2022-11-20T05:43:45;5.60;99.90
32698;DHT22;19087;51.062;3.754;2022-11-20T05:46:13;5.80;99.90
32698;DHT22;19087;51.062;3.754;2022-11-20T05:48:40;5.80;99.90
32698;DHT22;19087;51.062;3.754;2022-11-20T05:51:10;5.90;99.90
32698;DHT22;19087;51.062;3.754;2022-11-20T05:53:36;6.00;99.90
32698;DHT22;19087;51.062;3.754;2022-11-20T05:56:17;6.00;99.90
32698;DHT22;19087;51.062;3.754;2022-11-20T05:58:44;6.00;99.90
32698;DHT22;19087;51.062;3.754;2022-11-20T06:01:16;6.00;99.90
32698;DHT22;19087;51.062;3.754;2022-11-20T06:03:43;6.00;99.90
32698;DHT22;19087;51.062;3.754;2022-11-20T06:06:15;5.80;99.90
32698;DHT22;19087;51.062;3.754;2022-11-20T06:08:47;5.80;99.90
32698;DHT22;19087;51.062;3.754;2022-11-20T06:11:13;5.80;99.90
32698;DHT22;19087;51.062;3.754;2022-11-20T06:13:42;5.90;99.90
32698;DHT22;19087;51.062;3.754;2022-11-20T06:16:12;6.00;99.90
32698;DHT22;19087;51.062;3.754;2022-11-20T06:18:41;6.00;99.90
32698;DHT22;19087;51.062;3.754;2022-11-20T06:21:19;6.10;99.90
32698;DHT22;19087;51.062;3.754;2022-11-20T06:23:50;6.10;99.90
32698;DHT22;19087;51.062;3.754;2022-11-20T06:26:19;6.00;99.90
32698;DHT22;19087;51.062;3.754;2022-11-20T06:28:46;6.10;99.90
32698;DHT22;19087;51.062;3.754;2022-11-20T06:31:14;6.10;99.90
32698;DHT22;19087;51.062;3.754;2022-11-20T06:33:41;6.10;99.90
32698;DHT22;19087;51.062;3.754;2022-11-20T06:36:12;6.00;99.90
32698;DHT22;19087;51.062;3.754;2022-11-20T06:38:40;6.10;99.90
32698;DHT22;19087;51.062;3.754;2022-11-20T06:41:20;6.10;99.90
32698;DHT22;19087;51.062;3.754;2022-11-20T06:43:49;6.20;99.90
32698;DHT22;19087;51.062;3.754;2022-11-20T06:46:16;6.10;99.90
32698;DHT22;19087;51.062;3.754;2022-11-20T06:48:51;6.20;99.90
32698;DHT22;19087;51.062;3.754;2022-11-20T06:51:17;6.20;99.90
32698;DHT22;19087;51.062;3.754;2022-11-20T06:53:44;6.30;99.90
32698;DHT22;19087;51.062;3.754;2022-11-20T06:56:10;6.40;99.90
32698;DHT22;19087;51.062;3.754;2022-11-20T06:58:36;6.40;99.90
32698;DHT22;19087;51.062;3.754;2022-11-20T07:01:06;6.40;99.90
32698;DHT22;19087;51.062;3.754;2022-11-20T07:03:32;6.40;99.90
32698;DHT22;19087;51.062;3.754;2022-11-20T07:06:00;6.50;99.90
32698;DHT22;19087;51.062;3.754;2022-11-20T07:08:28;6.40;99.90
32698;DHT22;19087;51.062;3.754;2022-11-20T07:11:01;6.50;99.90
32698;DHT22;19087;51.062;3.754;2022-11-20T07:13:29;6.40;99.90
32698;DHT22;19087;51.062;3.754;2022-11-20T07:15:59;6.40;99.90
32698;DHT22;19087;51.062;3.754;2022-11-20T07:18:28;6.50;99.90
32698;DHT22;19087;51.062;3.754;2022-11-20T07:20:54;6.60;99.90
32698;DHT22;19087;51.062;3.754;2022-11-20T07:23:21;6.60;99.90
32698;DHT22;19087;51.062;3.754;2022-11-20T07:25:48;6.50;99.90
32698;DHT22;19087;51.062;3.754;2022-11-20T07:28:15;6.70;99.90
32698;DHT22;19087;51.062;3.754;2022-11-20T07:30:49;6.80;99.90
32698;DHT22;19087;51.062;3.754;2022-11-20T07:33:18;6.70;99.90
32698;DHT22;19087;51.062;3.754;2022-11-20T07:35:44;6.60;99.90
32698;DHT22;19087;51.062;3.754;2022-11-20T07:38:10;6.60;99.90
32698;DHT22;19087;51.062;3.754;2022-11-20T07:40:37;6.60;99.90
32698;DHT22;19087;51.062;3.754;2022-11-20T07:43:03;6.70;99.90
32698;DHT22;19087;51.062;3.754;2022-11-20T07:45:31;6.60;99.90
32698;DHT22;19087;51.062;3.754;2022-11-20T07:47:58;6.60;99.90
32698;DHT22;19087;51.062;3.754;2022-11-20T07:50:23;6.70;99.90
32698;DHT22;19087;51.062;3.754;2022-11-20T07:53:03;6.60;99.90
32698;DHT22;19087;51.062;3.754;2022-11-20T07:55:36;6.60;99.90
32698;DHT22;19087;51.062;3.754;2022-11-20T07:58:03;6.70;99.90
32698;DHT22;19087;51.062;3.754;2022-11-20T08:00:30;6.70;99.90
32698;DHT22;19087;51.062;3.754;2022-11-20T08:02:56;6.80;99.90
32698;DHT22;19087;51.062;3.754;2022-11-20T08:05:25;6.90;99.90
32698;DHT22;19087;51.062;3.754;2022-11-20T08:07:51;6.90;99.90
32698;DHT22;19087;51.062;3.754;2022-11-20T08:10:19;6.80;99.90
32698;DHT22;19087;51.062;3.754;2022-11-20T08:12:50;7.00;99.90
32698;DHT22;19087;51.062;3.754;2022-11-20T08:15:35;7.00;99.90
32698;DHT22;19087;51.062;3.754;2022-11-20T08:18:11;7.10;99.90
32698;DHT22;19087;51.062;3.754;2022-11-20T08:20:41;7.20;99.90
32698;DHT22;19087;51.062;3.754;2022-11-20T08:23:10;7.30;99.90
32698;DHT22;19087;51.062;3.754;2022-11-20T08:25:38;7.20;99.90
32698;DHT22;19087;51.062;3.754;2022-11-20T08:28:08;7.10;99.90
32698;DHT22;19087;51.062;3.754;2022-11-20T08:30:35;7.00;99.90
32698;DHT22;19087;51.062;3.754;2022-11-20T08:33:09;7.00;99.90
32698;DHT22;19087;51.062;3.754;2022-11-20T08:35:36;7.10;99.90
32698;DHT22;19087;51.062;3.754;2022-11-20T08:38:04;7.00;99.90
32698;DHT22;19087;51.062;3.754;2022-11-20T08:40:30;7.10;99.90
32698;DHT22;19087;51.062;3.754;2022-11-20T08:42:56;7.10;99.90
32698;DHT22;19087;51.062;3.754;2022-11-20T08:45:22;7.10;99.90
32698;DHT22;19087;51.062;3.754;2022-11-20T08:47:49;7.00;99.90
32698;DHT22;19087;51.062;3.754;2022-11-20T08:50:16;7.00;99.90
32698;DHT22;19087;51.062;3.754;2022-11-20T08:52:43;7.10;99.90
32698;DHT22;19087;51.062;3.754;2022-11-20T08:55:19;7.10;99.90
32698;DHT22;19087;51.062;3.754;2022-11-20T08:57:55;7.10;99.90
32698;DHT22;19087;51.062;3.754;2022-11-20T09:00:24;7.00;99.90
32698;DHT22;19087;51.062;3.754;2022-11-20T09:02:50;7.10;99.90
32698;DHT22;19087;51.062;3.754;2022-11-20T09:05:15;7.10;99.90
32698;DHT22;19087;51.062;3.754;2022-11-20T09:07:41;7.20;99.90
32698;DHT22;19087;51.062;3.754;2022-11-20T09:10:10;7.20;99.90
32698;DHT22;19087;51.062;3.754;2022-11-20T09:12:36;7.30;99.90
32698;DHT22;19087;51.062;3.754;2022-11-20T09:15:01;7.40;99.90
32698;DHT22;19087;51.062;3.754;2022-11-20T09:17:36;7.50;99.90
32698;DHT22;19087;51.062;3.754;2022-11-20T09:20:05;7.40;99.90
32698;DHT22;19087;51.062;3.754;2022-11-20T09:22:32;7.30;99.90
32698;DHT22;19087;51.062;3.754;2022-11-20T09:25:00;7.30;99.90
32698;DHT22;19087;51.062;3.754;2022-11-20T09:27:27;7.40;99.90
32698;DHT22;19087;51.062;3.754;2022-11-20T09:29:53;7.50;99.90
32698;DHT22;19087;51.062;3.754;2022-11-20T09:32:19;7.70;99.90
32698;DHT22;19087;51.062;3.754;2022-11-20T09:34:48;7.70;99.90
32698;DHT22;19087;51.062;3.754;2022-11-20T09:37:14;7.80;99.90
32698;DHT22;19087;51.062;3.754;2022-11-20T09:39:40;8.10;99.90
32698;DHT22;19087;51.062;3.754;2022-11-20T09:54:06;8.60;99.90
32698;DHT22;19087;51.062;3.754;2022-11-20T09:56:30;8.70;99.90
32698;DHT22;19087;51.062;3.754;2022-11-20T09:59:03;8.60;99.90
32698;DHT22;19087;51.062;3.754;2022-11-20T10:01:33;8.50;99.90
32698;DHT22;19087;51.062;3.754;2022-11-20T10:04:04;8.60;99.90
32698;DHT22;19087;51.062;3.754;2022-11-20T10:06:39;8.50;99.90
32698;DHT22;19087;51.062;3.754;2022-11-20T10:09:21;8.70;99.90
32698;DHT22;19087;51.062;3.754;2022-11-20T10:12:07;8.80;99.90
32698;DHT22;19087;51.062;3.754;2022-11-20T10:17:55;8.90;99.90
32698;DHT22;19087;51.062;3.754;2022-11-20T10:20:37;8.90;99.90
32698;DHT22;19087;51.062;3.754;2022-11-20T10:26:03;9.20;99.90
32698;DHT22;19087;51.062;3.754;2022-11-20T10:28:43;9.40;99.90
32698;DHT22;19087;51.062;3.754;2022-11-20T10:31:25;9.30;99.90
32698;DHT22;19087;51.062;3.754;2022-11-20T10:33:53;9.20;99.90
32698;DHT22;19087;51.062;3.754;2022-11-20T10:36:26;9.40;99.90
32698;DHT22;19087;51.062;3.754;2022-11-20T10:39:35;9.30;99.90
32698;DHT22;19087;51.062;3.754;2022-11-20T10:42:02;9.30;99.90
32698;DHT22;19087;51.062;3.754;2022-11-20T10:44:31;9.50;99.90
32698;DHT22;19087;51.062;3.754;2022-11-20T10:47:18;9.50;99.90
32698;DHT22;19087;51.062;3.754;2022-11-20T10:49:49;9.40;99.90
32698;DHT22;19087;51.062;3.754;2022-11-20T10:52:42;9.40;99.90
32698;DHT22;19087;51.062;3.754;2022-11-20T10:58:54;9.80;99.90
32698;DHT22;19087;51.062;3.754;2022-11-20T11:01:27;9.60;99.90
32698;DHT22;19087;51.062;3.754;2022-11-20T11:03:55;9.50;99.90
32698;DHT22;19087;51.062;3.754;2022-11-20T11:08:58;9.40;99.90
32698;DHT22;19087;51.062;3.754;2022-11-20T11:11:30;9.60;99.90
32698;DHT22;19087;51.062;3.754;2022-11-20T11:14:17;9.60;99.90
32698;DHT22;19087;51.062;3.754;2022-11-20T11:16:54;9.40;99.90
32698;DHT22;19087;51.062;3.754;2022-11-20T11:19:23;9.40;99.90
32698;DHT22;19087;51.062;3.754;2022-11-20T11:21:54;9.60;99.90
32698;DHT22;19087;51.062;3.754;2022-11-20T11:24:24;9.70;99.90
32698;DHT22;19087;51.062;3.754;2022-11-20T11:26:59;9.90;99.90
32698;DHT22;19087;51.062;3.754;2022-11-20T11:29:30;9.70;99.90
32698;DHT22;19087;51.062;3.754;2022-11-20T11:32:18;9.60;99.90
32698;DHT22;19087;51.062;3.754;2022-11-20T11:37:46;9.70;99.90
32698;DHT22;19087;51.062;3.754;2022-11-20T11:40:15;9.90;99.90
32698;DHT22;19087;51.062;3.754;2022-11-20T11:42:52;9.80;99.90
32698;DHT22;19087;51.062;3.754;2022-11-20T11:45:34;9.50;99.90
32698;DHT22;19087;51.062;3.754;2022-11-20T11:48:05;9.30;99.90
32698;DHT22;19087;51.062;3.754;2022-11-20T11:50:35;9.20;99.90
32698;DHT22;19087;51.062;3.754;2022-11-20T11:53:16;9.00;99.90
32698;DHT22;19087;51.062;3.754;2022-11-20T11:55:49;8.80;99.90
32698;DHT22;19087;51.062;3.754;2022-11-20T11:58:44;8.80;99.90
32698;DHT22;19087;51.062;3.754;2022-11-20T12:04:04;8.70;99.90
32698;DHT22;19087;51.062;3.754;2022-11-20T12:06:32;8.70;99.90
32698;DHT22;19087;51.062;3.754;2022-11-20T12:09:11;8.60;99.90
32698;DHT22;19087;51.062;3.754;2022-11-20T12:14:15;8.40;99.90
32698;DHT22;19087;51.062;3.754;2022-11-20T12:16:42;8.50;99.90
32698;DHT22;19087;51.062;3.754;2022-11-20T12:19:11;8.50;99.90
32698;DHT22;19087;51.062;3.754;2022-11-20T12:24:49;8.80;99.90
32698;DHT22;19087;51.062;3.754;2022-11-20T12:41:15;8.50;99.90
32698;DHT22;19087;51.062;3.754;2022-11-20T12:44:24;8.40;99.90
32698;DHT22;19087;51.062;3.754;2022-11-20T12:47:34;8.40;99.90
32698;DHT22;19087;51.062;3.754;2022-11-20T12:53:12;8.30;99.90
32698;DHT22;19087;51.062;3.754;2022-11-20T13:07:05;8.10;99.90
32698;DHT22;19087;51.062;3.754;2022-11-20T13:09:42;8.10;99.90
32698;DHT22;19087;51.062;3.754;2022-11-20T13:12:24;8.10;99.90
32698;DHT22;19087;51.062;3.754;2022-11-20T13:17:45;8.20;99.90
32698;DHT22;19087;51.062;3.754;2022-11-20T13:20:16;8.20;99.90
32698;DHT22;19087;51.062;3.754;2022-11-20T13:22:50;8.20;99.90
32698;DHT22;19087;51.062;3.754;2022-11-20T13:25:38;8.30;99.90
32698;DHT22;19087;51.062;3.754;2022-11-20T13:28:29;8.30;99.90
32698;DHT22;19087;51.062;3.754;2022-11-20T13:30:56;8.20;99.90
32698;DHT22;19087;51.062;3.754;2022-11-20T13:33:35;8.30;99.90
32698;DHT22;19087;51.062;3.754;2022-11-20T13:38:28;8.30;99.90
32698;DHT22;19087;51.062;3.754;2022-11-20T13:40:56;8.40;99.90
32698;DHT22;19087;51.062;3.754;2022-11-20T13:43:37;8.50;99.90
32698;DHT22;19087;51.062;3.754;2022-11-20T13:46:05;8.40;99.90
32698;DHT22;19087;51.062;3.754;2022-11-20T13:48:43;8.40;99.90
32698;DHT22;19087;51.062;3.754;2022-11-20T13:57:03;8.60;99.90
32698;DHT22;19087;51.062;3.754;2022-11-20T13:59:46;8.70;99.90
32698;DHT22;19087;51.062;3.754;2022-11-20T14:02:19;8.70;99.90
32698;DHT22;19087;51.062;3.754;2022-11-20T14:04:53;8.70;99.90
32698;DHT22;19087;51.062;3.754;2022-11-20T14:07:24;8.60;99.90
32698;DHT22;19087;51.062;3.754;2022-11-20T14:09:55;8.70;99.90
32698;DHT22;19087;51.062;3.754;2022-11-20T14:12:27;8.80;99.90
32698;DHT22;19087;51.062;3.754;2022-11-20T14:14:54;8.80;99.90
32698;DHT22;19087;51.062;3.754;2022-11-20T14:17:31;8.90;99.90
32698;DHT22;19087;51.062;3.754;2022-11-20T14:20:04;9.00;99.90
32698;DHT22;19087;51.062;3.754;2022-11-20T14:22:30;9.10;99.90
32698;DHT22;19087;51.062;3.754;2022-11-20T14:27:40;9.40;99.90
32698;DHT22;19087;51.062;3.754;2022-11-20T14:30:18;9.40;99.90
32698;DHT22;19087;51.062;3.754;2022-11-20T14:32:45;9.50;99.90
32698;DHT22;19087;51.062;3.754;2022-11-20T14:35:30;9.50;99.90
32698;DHT22;19087;51.062;3.754;2022-11-20T14:37:57;9.80;99.90
32698;DHT22;19087;51.062;3.754;2022-11-20T14:40:29;9.80;99.90
32698;DHT22;19087;51.062;3.754;2022-11-20T14:42:56;10.00;99.90
32698;DHT22;19087;51.062;3.754;2022-11-20T14:45:24;10.30;99.90
32698;DHT22;19087;51.062;3.754;2022-11-20T14:47:53;10.60;99.90
32698;DHT22;19087;51.062;3.754;2022-11-20T14:50:28;10.60;99.90
32698;DHT22;19087;51.062;3.754;2022-11-20T14:55:33;10.60;99.90
32698;DHT22;19087;51.062;3.754;2022-11-20T14:58:05;10.70;99.90
32698;DHT22;19087;51.062;3.754;2022-11-20T15:00:34;10.80;99.90
32698;DHT22;19087;51.062;3.754;2022-11-20T15:03:01;10.70;99.90
32698;DHT22;19087;51.062;3.754;2022-11-20T15:05:48;10.60;99.90
32698;DHT22;19087;51.062;3.754;2022-11-20T15:08:16;10.60;99.90
32698;DHT22;19087;51.062;3.754;2022-11-20T15:10:51;10.50;99.90
32698;DHT22;19087;51.062;3.754;2022-11-20T15:13:33;10.40;99.90
32698;DHT22;19087;51.062;3.754;2022-11-20T15:16:01;10.30;99.90
32698;DHT22;19087;51.062;3.754;2022-11-20T15:18:40;10.20;99.90
32698;DHT22;19087;51.062;3.754;2022-11-20T15:21:12;10.30;99.90
32698;DHT22;19087;51.062;3.754;2022-11-20T15:23:39;10.30;99.90
32698;DHT22;19087;51.062;3.754;2022-11-20T15:26:06;10.40;99.90
32698;DHT22;19087;51.062;3.754;2022-11-20T15:28:38;10.50;99.90
32698;DHT22;19087;51.062;3.754;2022-11-20T15:31:05;10.50;99.90
32698;DHT22;19087;51.062;3.754;2022-11-20T15:33:32;10.50;99.90
32698;DHT22;19087;51.062;3.754;2022-11-20T15:36:00;10.40;99.90
32698;DHT22;19087;51.062;3.754;2022-11-20T15:38:26;10.40;99.90
32698;DHT22;19087;51.062;3.754;2022-11-20T15:40:51;10.40;99.90
32698;DHT22;19087;51.062;3.754;2022-11-20T15:43:17;10.30;99.90
32698;DHT22;19087;51.062;3.754;2022-11-20T15:45:46;10.30;99.90
32698;DHT22;19087;51.062;3.754;2022-11-20T15:48:24;10.20;99.90
32698;DHT22;19087;51.062;3.754;2022-11-20T15:53:39;10.10;99.90
32698;DHT22;19087;51.062;3.754;2022-11-20T15:56:06;10.10;99.90
32698;DHT22;19087;51.062;3.754;2022-11-20T15:58:32;10.20;99.90
32698;DHT22;19087;51.062;3.754;2022-11-20T16:00:58;10.00;99.90
32698;DHT22;19087;51.062;3.754;2022-11-20T16:03:24;10.10;99.90
32698;DHT22;19087;51.062;3.754;2022-11-20T16:05:49;10.10;99.90
32698;DHT22;19087;51.062;3.754;2022-11-20T16:08:16;10.10;99.90
32698;DHT22;19087;51.062;3.754;2022-11-20T16:10:41;10.10;99.90
32698;DHT22;19087;51.062;3.754;2022-11-20T16:13:15;10.10;99.90
32698;DHT22;19087;51.062;3.754;2022-11-20T16:16:03;10.10;99.90
32698;DHT22;19087;51.062;3.754;2022-11-20T16:18:32;10.10;99.90
32698;DHT22;19087;51.062;3.754;2022-11-20T16:20:58;10.10;99.90
32698;DHT22;19087;51.062;3.754;2022-11-20T16:23:24;10.00;99.90
32698;DHT22;19087;51.062;3.754;2022-11-20T16:25:50;9.90;99.90
32698;DHT22;19087;51.062;3.754;2022-11-20T16:28:22;9.80;99.90
32698;DHT22;19087;51.062;3.754;2022-11-20T16:30:50;9.90;99.90
32698;DHT22;19087;51.062;3.754;2022-11-20T16:33:17;10.00;99.90
32698;DHT22;19087;51.062;3.754;2022-11-20T16:35:43;10.00;99.90
32698;DHT22;19087;51.062;3.754;2022-11-20T16:38:09;10.00;99.90
32698;DHT22;19087;51.062;3.754;2022-11-20T16:40:34;10.10;99.90
32698;DHT22;19087;51.062;3.754;2022-11-20T16:43:10;10.20;99.90
32698;DHT22;19087;51.062;3.754;2022-11-20T16:45:42;10.40;99.90
32698;DHT22;19087;51.062;3.754;2022-11-20T16:48:15;10.50;99.90
32698;DHT22;19087;51.062;3.754;2022-11-20T16:50:50;10.40;99.90
32698;DHT22;19087;51.062;3.754;2022-11-20T16:53:17;10.30;99.90
32698;DHT22;19087;51.062;3.754;2022-11-20T16:55:44;10.30;99.90
32698;DHT22;19087;51.062;3.754;2022-11-20T16:58:09;10.30;99.90
32698;DHT22;19087;51.062;3.754;2022-11-20T17:00:36;10.30;99.90
32698;DHT22;19087;51.062;3.754;2022-11-20T17:03:03;10.20;99.90
32698;DHT22;19087;51.062;3.754;2022-11-20T17:05:30;10.30;99.90
32698;DHT22;19087;51.062;3.754;2022-11-20T17:07:55;10.40;99.90
32698;DHT22;19087;51.062;3.754;2022-11-20T17:10:21;10.30;99.90
32698;DHT22;19087;51.062;3.754;2022-11-20T17:12:47;10.50;99.90
32698;DHT22;19087;51.062;3.754;2022-11-20T17:15:13;10.20;99.90
32698;DHT22;19087;51.062;3.754;2022-11-20T17:17:39;10.10;99.90
32698;DHT22;19087;51.062;3.754;2022-11-20T17:20:05;10.00;99.90
32698;DHT22;19087;51.062;3.754;2022-11-20T17:22:31;9.80;99.90
32698;DHT22;19087;51.062;3.754;2022-11-20T17:24:57;10.00;99.90
32698;DHT22;19087;51.062;3.754;2022-11-20T17:27:22;10.10;99.90
32698;DHT22;19087;51.062;3.754;2022-11-20T17:29:48;10.20;99.90